Arcola, MS

2:45 PM CST on December 22, 2014 (GMT -0600)
Mid Delta Regional | Change Station
CLOSE
Current Station
Airport
Location: Greenville,
Elevation: 131 ft
Nearby Weather Stations

Elev 131 ft 33.48 °N, 90.99 °W | Updated 52 minutes ago

Overcast
Overcast
61 °F
Feels Like 61 °F
N
12
Wind Variable Wind from SSE

Today
High -- | Low -- °F
--% Chance of Precip.
Yesterday
High -- | Low -- °F
Precip. -- in
7:03 AM 5:00 PM
New Moon, 1% visible
Pressure 29.65 in
Visibility 8.0 miles
Clouds Overcast 1200 ft
Dew Point 56 °F
Humidity 83%
Rainfall 0.00 in
Snow Depth Not available.
UV 1 out of 12
Pollen 2.10 out of 12
Air Quality Not available.
Flu Activity Not available.
METAR KGLH 221953Z AUTO 16010KT 8SM OVC012 16/13 A2963 RMK AO2 SLP040 T01610133

More Conditions Fewer Conditions

Pressure 29.65 in
Visibility 8.0 miles
Clouds Overcast 1200 ft
Dew Point 56 °F
Humidity 83%
Rainfall 0.00 in
Snow Depth Not available.
UV 1 out of 12
Pollen 2.10 out of 12
Air Quality Not available.
Flu Activity Not available.
METAR KGLH 221953Z AUTO 16010KT 8SM OVC012 16/13 A2963 RMK AO2 SLP040 T01610133

More Conditions Fewer Conditions

10-Day Weather Forecast

Almanac

Astronomy

Dec. 22, 2014 Rise Set
Actual Time
Civil Twilight
Nautical Twilight
Astronomical Twilight
Moon
Length of Visible Light
Length of Day
Tomorrow will be .
, % of the Moon is Illuminated

Today's Extremes

State Highs State Lows

Community

WunderPhotos

Upload Photos

1,779,676 photos uploaded!

WunderBlogs® & News

Nearby

Air Quality

  Air Quality AQ Index Pollutant
Not available.

Snow Depth

Station Depth Elevation

Earthquake Activity

City Distance Mag. Time & Date
Minimum magnitude displayed is 2.5.

Coastal Water Temperatures

Place Temperature

Nearby Weather Stations